Página principal
METAR-TAF:

METAR-TAF

Aeroportos :

El Hierro, Espanha

latitude: 27-49N, longitude: 017-53W, altura: 32 m

Observação actual do tempo

O boletim foi feito há 29 minutos, às 05:30 UTC
Vento 16 kt de norte
Temperatura 22°C
Humidade 83%
Pressão 1016 hPa
Visibilidade 10 km ou mais
Nuvens fragmentadasa uma altura de 1800 ft

METAR: GCHI 120530Z AUTO 35016KT 9999 BKN018 22/19 Q1016

Hora: 06:59 (05:59 UTC)

Previsão

O boletim foi feito há 3 horas e 59 minutos, às 02:00 UTC
Previsão válida de 12 às 03 UTC a 13 às 03 UTC
Vento 15 kt de norte
Visibilidade 10 km ou mais
Nuvens dispersasa uma altura de 2000 ft

TAF: GCHI 120200Z 1203/1303 36015KT 9999 SCT020 TX26/1214Z TN22/1206Z

Observações e previsões do tempo de mais de 4000 aeroportos (mensagens METAR e TAF).

As estações disponíveis são os pontos amarelos e vermelhos sobre o mapa.

Mova o rato sobre o mapa para ver o nome da estação.

Depois clique no ponto para visualizar as observações e previsões meteorológicas.

Para alterar o mapa : clique nos botões verdes com uma cruz preta para aumentar o zoom; no botão verde com uma pitada de zoom; ou nas setas verdes para mapas adjacentes.


METAR-TAF: